createdAt,value
2023-04-12T00:03:50.620Z,8.50
2023-04-12T00:08:53.449Z,8.10
2023-04-12T00:13:55.761Z,9.50
2023-04-12T00:18:57.606Z,10.00
2023-04-12T00:23:59.671Z,10.80
2023-04-12T00:29:01.689Z,10.90
2023-04-12T00:34:03.399Z,7.70
2023-04-12T00:39:05.090Z,10.80
2023-04-12T00:44:07.765Z,11.60
2023-04-12T00:49:12.229Z,8.90
2023-04-12T00:54:14.481Z,8.60
2023-04-12T00:59:16.162Z,8.10
2023-04-12T01:04:19.101Z,5.90
2023-04-12T01:09:36.207Z,5.60
2023-04-12T01:14:45.525Z,7.70
2023-04-12T01:19:59.064Z,9.60
2023-04-12T01:25:14.265Z,10.40
2023-04-12T01:30:19.514Z,10.40
2023-04-12T01:35:28.170Z,8.60
2023-04-12T01:40:31.169Z,10.80
2023-04-12T01:45:33.279Z,13.10
2023-04-12T01:51:09.366Z,13.00
2023-04-12T01:56:12.200Z,12.50
2023-04-12T02:01:16.157Z,14.10
2023-04-12T02:06:21.396Z,11.80
2023-04-12T02:11:23.256Z,14.00
2023-04-12T02:16:25.093Z,13.00
2023-04-12T02:21:27.870Z,13.30
2023-04-12T02:26:30.027Z,15.10
2023-04-12T02:31:32.884Z,13.00
2023-04-12T02:36:37.918Z,17.20
2023-04-12T02:41:40.299Z,13.20
2023-04-12T02:46:45.955Z,14.40
2023-04-12T02:51:49.629Z,10.80
2023-04-12T02:56:52.110Z,11.30
2023-04-12T03:02:14.639Z,12.50
2023-04-12T03:07:19.145Z,11.50
2023-04-12T03:12:24.103Z,14.30
2023-04-12T03:17:33.435Z,13.20
2023-04-12T03:22:37.318Z,14.00
2023-04-12T03:27:42.157Z,15.00
2023-04-12T03:32:45.161Z,15.10
2023-04-12T03:37:47.285Z,12.80
2023-04-12T03:42:50.225Z,17.00
2023-04-12T03:47:52.155Z,12.50
2023-04-12T03:52:55.214Z,14.90
2023-04-12T03:57:59.352Z,14.60
2023-04-12T04:03:05.383Z,16.10
2023-04-12T04:08:13.299Z,14.30
2023-04-12T04:13:35.571Z,13.90
2023-04-12T04:18:40.388Z,15.90
2023-04-12T04:23:47.866Z,19.00
2023-04-12T04:28:50.240Z,17.40
2023-04-12T04:33:54.185Z,17.10
2023-04-12T04:39:02.166Z,14.50
2023-04-12T04:44:13.394Z,31.20
2023-04-12T04:49:22.611Z,25.10
2023-04-12T04:54:24.463Z,20.40
2023-04-12T04:59:26.141Z,14.80
2023-04-12T05:04:29.965Z,14.70
2023-04-12T05:09:31.802Z,16.70
2023-04-12T05:19:52.013Z,10.40
2023-04-12T05:24:53.739Z,18.70
2023-04-12T05:29:57.356Z,16.10
2023-04-12T05:34:59.440Z,16.70
2023-04-12T05:40:02.147Z,22.10
2023-04-12T05:45:05.565Z,17.90
2023-04-12T05:50:08.386Z,13.70
2023-04-12T05:55:10.864Z,19.30
2023-04-12T06:00:19.008Z,16.40
2023-04-12T06:05:21.034Z,15.40
2023-04-12T06:10:22.803Z,18.20
2023-04-12T06:15:27.330Z,17.20
2023-04-12T06:20:29.458Z,16.80
2023-04-12T06:25:31.355Z,17.20
2023-04-12T06:30:33.599Z,13.50
2023-04-12T06:35:35.577Z,13.40
2023-04-12T06:40:37.782Z,11.30
2023-04-12T06:45:39.526Z,12.40
2023-04-12T06:50:41.239Z,15.40
2023-04-12T06:55:42.896Z,12.80
2023-04-12T07:00:45.032Z,15.90
2023-04-12T07:05:47.385Z,11.20
2023-04-12T07:10:53.992Z,15.20
2023-04-12T07:15:55.866Z,13.20
2023-04-12T07:20:58.849Z,9.40
2023-04-12T07:26:02.122Z,11.50
2023-04-12T07:31:07.623Z,15.70
2023-04-12T07:36:09.618Z,7.80
2023-04-12T07:41:11.266Z,9.30
2023-04-12T07:46:13.240Z,8.40
2023-04-12T07:51:14.921Z,8.80
2023-04-12T07:56:16.839Z,11.00
2023-04-12T08:01:18.882Z,8.00
2023-04-12T08:06:20.632Z,7.80
2023-04-12T08:11:22.360Z,40.40
2023-04-12T08:16:24.268Z,5.60
2023-04-12T08:21:27.732Z,8.30
2023-04-12T08:26:29.953Z,9.10
2023-04-12T08:31:31.938Z,10.70
2023-04-12T08:36:33.671Z,9.00
2023-04-12T08:41:37.669Z,7.80
2023-04-12T08:46:41.157Z,7.40
2023-04-12T08:51:43.352Z,6.60
2023-04-12T08:56:47.176Z,14.50
2023-04-12T09:01:49.849Z,6.90
2023-04-12T09:06:52.104Z,4.20
2023-04-12T09:12:07.060Z,5.00
2023-04-12T09:17:26.747Z,5.00
2023-04-12T09:22:35.985Z,8.10
2023-04-12T09:27:48.258Z,6.60
2023-04-12T09:32:50.439Z,4.60
2023-04-12T09:37:58.667Z,7.10
2023-04-12T09:43:00.315Z,5.30
2023-04-12T09:48:02.208Z,5.90
2023-04-12T09:53:15.510Z,6.60
2023-04-12T09:58:20.006Z,5.10
2023-04-12T10:03:22.056Z,5.90
2023-04-12T10:08:24.350Z,4.70
2023-04-12T10:13:27.617Z,7.50
2023-04-12T10:18:30.841Z,5.10
2023-04-12T10:23:33.077Z,5.30
2023-04-12T10:28:34.971Z,5.00
2023-04-12T10:38:48.520Z,6.80
2023-04-12T10:44:26.344Z,8.40
2023-04-12T10:49:28.231Z,3.80
2023-04-12T10:54:35.714Z,5.10
2023-04-12T10:59:50.986Z,7.20
2023-04-12T11:05:05.721Z,5.20
2023-04-12T11:10:26.510Z,8.30
2023-04-12T11:15:31.296Z,4.50
2023-04-12T11:20:34.232Z,8.10
2023-04-12T11:25:37.262Z,6.30
2023-04-12T11:30:49.328Z,7.60
2023-04-12T11:35:51.285Z,5.60
2023-04-12T11:40:54.376Z,5.50
2023-04-12T11:46:00.342Z,6.80
2023-04-12T11:51:18.987Z,5.90
2023-04-12T11:56:20.876Z,4.80
2023-04-12T12:01:23.323Z,5.30
2023-04-12T12:06:27.398Z,7.10
2023-04-12T12:11:29.657Z,6.70
2023-04-12T12:21:33.171Z,9.50
2023-04-12T12:26:35.969Z,6.20
2023-04-12T12:31:37.702Z,9.40
2023-04-12T12:36:39.662Z,7.30
2023-04-12T12:41:41.506Z,8.80
2023-04-12T12:51:47.930Z,11.10
2023-04-12T12:56:49.546Z,10.50
2023-04-12T13:01:51.317Z,8.30
2023-04-12T13:06:53.608Z,7.80
2023-04-12T13:11:57.207Z,8.40
2023-04-12T13:16:58.941Z,7.50
2023-04-12T13:22:00.765Z,6.80
2023-04-12T13:27:02.935Z,5.90
2023-04-12T13:32:04.991Z,6.10
2023-04-12T13:37:07.585Z,6.40
2023-04-12T13:42:09.361Z,8.70
2023-04-12T13:47:11.152Z,10.70
2023-04-12T13:52:13.423Z,12.50
2023-04-12T13:57:15.065Z,12.00
2023-04-12T14:02:16.751Z,9.50
2023-04-12T14:07:19.013Z,10.90
2023-04-12T14:12:20.655Z,9.70
2023-04-12T14:17:22.593Z,12.30
2023-04-12T14:22:24.543Z,10.60
2023-04-12T14:27:26.314Z,11.20
2023-04-12T14:32:28.127Z,11.70
2023-04-12T14:37:29.791Z,12.50
2023-04-12T14:42:31.439Z,11.10
2023-04-12T14:47:34.367Z,12.60
2023-04-12T14:52:36.138Z,9.30
2023-04-12T14:57:39.158Z,10.20
2023-04-12T15:02:41.730Z,11.10
2023-04-12T15:07:43.563Z,12.90
2023-04-12T15:12:45.184Z,8.90
2023-04-12T15:17:47.151Z,9.20
2023-04-12T15:27:50.784Z,15.00
2023-04-12T15:32:52.404Z,12.00
2023-04-12T15:37:55.321Z,11.00
2023-04-12T15:42:57.286Z,9.60
2023-04-12T15:48:00.118Z,7.40
2023-04-12T15:53:02.668Z,9.80
2023-04-12T16:03:07.584Z,8.50
2023-04-12T16:08:10.947Z,9.70
2023-04-12T16:13:12.563Z,7.70
2023-04-12T16:18:14.251Z,8.40
2023-04-12T16:23:17.729Z,10.80
2023-04-12T16:28:20.606Z,8.90
2023-04-12T16:33:22.583Z,8.80
2023-04-12T16:38:25.092Z,9.30
2023-04-12T16:43:27.374Z,12.30
2023-04-12T16:48:29.324Z,10.10
2023-04-12T16:53:31.403Z,9.40
2023-04-12T16:58:33.419Z,9.80
2023-04-12T17:03:35.198Z,6.10
2023-04-12T17:08:37.160Z,11.30
2023-04-12T17:13:38.835Z,17.10
2023-04-12T17:18:43.280Z,15.30
2023-04-12T17:23:44.873Z,15.90
2023-04-12T17:28:46.813Z,15.80
2023-04-12T17:33:48.528Z,16.00
2023-04-12T17:38:50.311Z,19.00
2023-04-12T17:43:51.935Z,21.00
2023-04-12T17:48:53.554Z,24.60
2023-04-12T17:53:58.315Z,24.90
2023-04-12T17:59:01.957Z,29.00
2023-04-12T18:04:04.714Z,31.20
2023-04-12T18:09:06.664Z,40.10
2023-04-12T18:14:10.058Z,30.10
2023-04-12T18:19:13.315Z,32.10
2023-04-12T18:24:16.962Z,24.10
2023-04-12T18:29:19.649Z,20.00
2023-04-12T18:39:24.355Z,15.20
2023-04-12T18:44:26.148Z,19.10
2023-04-12T18:49:27.779Z,15.90
2023-04-12T18:54:29.447Z,21.90
2023-04-12T18:59:31.187Z,27.00
2023-04-12T19:04:32.988Z,95.90
2023-04-12T19:09:35.087Z,141.70
2023-04-12T19:14:36.810Z,142.30
2023-04-12T19:19:38.480Z,123.10
2023-04-12T19:24:42.629Z,87.70
2023-04-12T19:29:45.524Z,82.00
2023-04-12T19:34:47.828Z,70.70
2023-04-12T19:39:50.038Z,67.10
2023-04-12T19:44:52.800Z,59.60
2023-04-12T19:49:56.330Z,45.50
2023-04-12T19:55:01.633Z,43.70
2023-04-12T20:00:25.316Z,31.80
2023-04-12T20:05:27.582Z,31.00
2023-04-12T20:10:29.296Z,37.20
2023-04-12T20:15:31.337Z,41.30
2023-04-12T20:20:32.976Z,33.20
2023-04-12T20:25:37.756Z,30.80
2023-04-12T20:30:40.200Z,26.60
2023-04-12T20:35:44.893Z,33.30
2023-04-12T20:40:47.047Z,24.50
2023-04-12T20:45:50.719Z,28.40
2023-04-12T20:50:52.454Z,35.30
2023-04-12T20:55:54.753Z,39.80
2023-04-12T21:00:57.003Z,28.80
2023-04-12T21:06:00.442Z,35.90
2023-04-12T21:11:06.976Z,35.90
2023-04-12T21:16:29.287Z,40.10
2023-04-12T21:21:35.190Z,42.90
2023-04-12T21:26:37.034Z,32.10
2023-04-12T21:31:41.741Z,37.10
2023-04-12T21:36:44.101Z,33.50
2023-04-12T21:41:46.810Z,35.20
2023-04-12T21:47:08.805Z,37.20
2023-04-12T21:52:30.574Z,31.80
2023-04-12T21:57:33.665Z,35.20
2023-04-12T22:02:36.066Z,35.30
2023-04-12T22:07:41.264Z,28.90
2023-04-12T22:12:50.445Z,32.40
2023-04-12T22:17:52.294Z,39.90
2023-04-12T22:22:56.114Z,34.00
2023-04-12T22:27:58.248Z,35.20
2023-04-12T22:33:00.062Z,37.10
2023-04-12T22:38:01.970Z,38.30
2023-04-12T22:43:03.670Z,36.50
2023-04-12T22:48:06.663Z,41.20
2023-04-12T22:58:10.305Z,38.60
2023-04-12T23:03:12.021Z,37.20
2023-04-12T23:08:14.619Z,33.50
2023-04-12T23:13:19.494Z,59.60
2023-04-12T23:18:21.157Z,39.80
2023-04-12T23:23:24.637Z,25.70
2023-04-12T23:28:26.625Z,50.00
2023-04-12T23:33:29.942Z,53.00
2023-04-12T23:38:33.654Z,37.50
2023-04-12T23:43:55.383Z,43.20
2023-04-12T23:49:01.680Z,37.90
2023-04-12T23:54:24.203Z,57.00
2023-04-12T23:59:27.613Z,56.90
